Cedar Canyon, South Dakota
Current Conditions -  °F | °C
As of 3:15 AM on Monday 26 Jan 2015 (Local Time) from KSPF Reporting Station
Clear Clear  
Wind Chill: 50°   Ceiling: Unl
Heat Index: 50°   Visibility: 10mi
Dew Point: 28°   Wind: 13mph
Humidity: 43%   Direction: 270°W
Pressure: 30.03"   Gusts: 21mph
Location:  44.9094°N, 103.193°W
Report Text: KSPF 261015Z AUTO 27011G18KT 10SM CLR 10/M02 A3003 RMK AO2
Loading
Personal Weather Stations






























Interactive Weather Map New forecast layout! Learn more

10-Day Weather Forecast

Advertisements
Track Severe Weather on mobile